createdAt,value
2019-03-01T00:00:37.295Z,100445.44
2019-03-01T00:03:10.474Z,100449.03
2019-03-01T00:06:28.419Z,100447.20
2019-03-01T00:10:01.426Z,100442.52
2019-03-01T00:14:07.057Z,100430.89
2019-03-01T00:17:48.996Z,100432.45
2019-03-01T00:21:05.935Z,100430.02
2019-03-01T00:24:47.047Z,100438.91
2019-03-01T00:28:12.731Z,100434.96
2019-03-01T00:31:16.028Z,100428.26
2019-03-01T00:34:48.883Z,100427.80
2019-03-01T00:38:11.574Z,100427.34
2019-03-01T00:41:43.125Z,100416.05
2019-03-01T00:44:31.938Z,100421.30
2019-03-01T00:47:10.931Z,100421.30
2019-03-01T00:49:42.653Z,100420.44
2019-03-01T00:52:15.002Z,100422.61
2019-03-01T00:54:47.271Z,100415.59
2019-03-01T00:57:18.941Z,100421.75
2019-03-01T00:59:50.581Z,100421.70
2019-03-01T01:02:22.388Z,100418.56
2019-03-01T01:04:54.017Z,100417.56
2019-03-01T01:07:25.732Z,100418.81
2019-03-01T01:09:57.711Z,100414.42
2019-03-01T01:12:29.366Z,100401.30
2019-03-01T01:15:01.098Z,100402.20
2019-03-01T01:17:32.764Z,100401.34
2019-03-01T01:20:04.865Z,100397.86
2019-03-01T01:22:36.529Z,100390.79
2019-03-01T01:25:08.609Z,100387.25
2019-03-01T01:27:41.106Z,100378.06
2019-03-01T01:30:13.688Z,100374.89
2019-03-01T01:32:45.363Z,100368.78
2019-03-01T01:35:16.989Z,100375.30
2019-03-01T01:37:49.300Z,100363.53
2019-03-01T01:40:21.287Z,100364.39
2019-03-01T01:42:52.908Z,100356.59
2019-03-01T01:45:24.558Z,100351.86
2019-03-01T01:47:56.153Z,100343.58
2019-03-01T01:50:27.763Z,100339.59
2019-03-01T01:53:00.386Z,100340.05
2019-03-01T01:55:32.372Z,100342.52
2019-03-01T01:58:04.018Z,100338.67
2019-03-01T02:00:35.734Z,100333.48
2019-03-01T02:03:08.443Z,100334.79
2019-03-01T02:05:40.136Z,100332.83
2019-03-01T02:08:11.865Z,100333.34
2019-03-01T02:10:44.017Z,100330.34
2019-03-01T02:13:15.803Z,100320.36
2019-03-01T02:15:47.452Z,100326.06
2019-03-01T02:18:19.152Z,100325.35
2019-03-01T02:20:50.909Z,100323.64
2019-03-01T02:23:22.608Z,100323.24
2019-03-01T02:25:54.780Z,100320.67
2019-03-01T02:28:26.531Z,100320.22
2019-03-01T02:31:00.147Z,100322.53
2019-03-01T02:33:31.874Z,100320.42
2019-03-01T02:36:03.474Z,100318.34
2019-03-01T02:38:36.076Z,100313.60
2019-03-01T02:41:07.666Z,100314.00
2019-03-01T02:43:39.750Z,100316.23
2019-03-01T02:46:11.621Z,100308.81
2019-03-01T02:48:43.287Z,100306.19
2019-03-01T02:51:14.977Z,100303.95
2019-03-01T02:53:46.668Z,100296.39
2019-03-01T02:56:18.308Z,100281.45
2019-03-01T02:58:50.402Z,100269.69
2019-03-01T03:01:22.022Z,100276.34
2019-03-01T03:03:53.654Z,100284.67
2019-03-01T03:06:39.502Z,100272.92
2019-03-01T03:09:12.133Z,100277.77
2019-03-01T03:11:43.731Z,100268.19
2019-03-01T03:14:15.829Z,100277.52
2019-03-01T03:16:47.461Z,100269.75
2019-03-01T03:19:19.699Z,100275.61
2019-03-01T03:21:51.380Z,100264.39
2019-03-01T03:24:23.072Z,100264.42
2019-03-01T03:26:54.695Z,100251.05
2019-03-01T03:29:26.937Z,100244.48
2019-03-01T03:31:58.723Z,100238.44
2019-03-01T03:34:30.741Z,100234.50
2019-03-01T03:37:03.321Z,100235.77
2019-03-01T03:39:34.900Z,100229.60
2019-03-01T03:42:06.739Z,100228.20
2019-03-01T03:44:38.472Z,100228.14
2019-03-01T03:47:10.197Z,100225.06
2019-03-01T03:49:42.262Z,100226.38
2019-03-01T03:52:13.885Z,100222.03
2019-03-01T03:54:45.554Z,100217.25
2019-03-01T03:57:17.197Z,100216.48
2019-03-01T03:59:49.109Z,100211.30
2019-03-01T04:02:20.756Z,100201.25
2019-03-01T04:04:57.462Z,100200.39
2019-03-01T04:07:29.169Z,100198.62
2019-03-01T04:10:00.822Z,100199.88
2019-03-01T04:12:32.470Z,100195.49
2019-03-01T04:15:04.414Z,100195.61
2019-03-01T04:17:36.035Z,100189.91
2019-03-01T04:20:10.639Z,100189.91
2019-03-01T04:22:42.346Z,100183.28
2019-03-01T04:25:14.079Z,100175.47
2019-03-01T04:27:45.737Z,100174.62
2019-03-01T04:30:18.338Z,100170.77
2019-03-01T04:32:49.994Z,100169.46
2019-03-01T04:35:22.448Z,100170.69
2019-03-01T04:37:54.721Z,100174.05
2019-03-01T04:40:26.594Z,100170.48
2019-03-01T04:42:58.386Z,100164.47
2019-03-01T04:45:30.377Z,100164.41
2019-03-01T04:48:01.994Z,100164.77
2019-03-01T04:50:33.661Z,100160.92
2019-03-01T04:53:05.751Z,100159.62
2019-03-01T04:55:37.532Z,100150.49
2019-03-01T04:58:09.176Z,100146.61
2019-03-01T05:00:40.856Z,100148.93
2019-03-01T05:03:12.479Z,100148.59
2019-03-01T05:05:44.128Z,100153.13
2019-03-01T05:08:16.379Z,100147.18
2019-03-01T05:10:48.076Z,100138.00
2019-03-01T05:13:19.765Z,100138.66
2019-03-01T05:15:51.352Z,100138.02
2019-03-01T05:18:23.003Z,100137.61
2019-03-01T05:20:54.664Z,100142.91
2019-03-01T05:23:26.937Z,100146.91
2019-03-01T05:25:58.596Z,100135.65
2019-03-01T05:28:30.248Z,100138.33
2019-03-01T05:31:02.009Z,100141.80
2019-03-01T05:33:33.655Z,100135.77
2019-03-01T05:36:05.288Z,100142.41
2019-03-01T05:38:38.213Z,100138.08
2019-03-01T05:41:09.886Z,100142.86
2019-03-01T05:43:41.555Z,100136.22
2019-03-01T05:46:13.167Z,100131.83
2019-03-01T05:48:44.942Z,100131.06
2019-03-01T05:51:16.619Z,100133.23
2019-03-01T05:53:48.890Z,100137.16
2019-03-01T05:56:20.620Z,100138.53
2019-03-01T05:59:25.724Z,100138.64
2019-03-01T06:02:49.090Z,100135.66
2019-03-01T06:05:38.036Z,100135.82
2019-03-01T06:09:28.614Z,100132.64
2019-03-01T06:13:01.439Z,100131.78
2019-03-01T06:16:18.585Z,100131.52
2019-03-01T06:19:34.728Z,100139.05
2019-03-01T06:22:51.401Z,100140.81
2019-03-01T06:26:12.128Z,100138.08
2019-03-01T06:29:15.169Z,100140.16
2019-03-01T06:32:49.890Z,100136.31
2019-03-01T06:36:04.628Z,100135.37
2019-03-01T06:39:58.137Z,100140.61
2019-03-01T06:43:29.146Z,100138.45
2019-03-01T06:46:38.916Z,100146.80
2019-03-01T06:49:35.845Z,100145.59
2019-03-01T06:52:07.585Z,100143.97
2019-03-01T06:54:39.191Z,100139.55
2019-03-01T06:57:11.103Z,100136.42
2019-03-01T06:59:42.792Z,100142.47
2019-03-01T07:02:19.253Z,100138.45
2019-03-01T07:04:50.970Z,100142.78
2019-03-01T07:07:22.643Z,100137.02
2019-03-01T07:09:54.256Z,100136.97
2019-03-01T07:12:26.140Z,100133.29
2019-03-01T07:14:57.814Z,100132.44
2019-03-01T07:17:29.716Z,100131.44
2019-03-01T07:20:01.861Z,100126.53
2019-03-01T07:22:33.528Z,100123.77
2019-03-01T07:25:05.313Z,100129.87
2019-03-01T07:27:37.146Z,100124.63
2019-03-01T07:30:09.229Z,100130.20
2019-03-01T07:32:41.039Z,100132.37
2019-03-01T07:35:13.251Z,100132.23
2019-03-01T07:37:45.599Z,100128.81
2019-03-01T07:40:17.294Z,100135.36
2019-03-01T07:42:49.043Z,100140.24
2019-03-01T07:45:20.912Z,100135.85
2019-03-01T07:47:52.575Z,100135.91
2019-03-01T07:50:24.710Z,100136.02
2019-03-01T07:52:56.551Z,100141.16
2019-03-01T07:55:29.363Z,100135.36
2019-03-01T07:58:01.193Z,100133.94
2019-03-01T08:00:33.079Z,100142.57
2019-03-01T08:03:04.899Z,100141.60
2019-03-01T08:05:39.367Z,100138.92
2019-03-01T08:08:10.323Z,100140.80
2019-03-01T08:10:42.054Z,100140.92
2019-03-01T08:13:14.739Z,100139.02
2019-03-01T08:15:47.094Z,100138.75
2019-03-01T08:18:18.871Z,100131.98
2019-03-01T08:20:51.130Z,100132.75
2019-03-01T08:23:23.173Z,100136.02
2019-03-01T08:25:55.566Z,100135.86
2019-03-01T08:28:28.352Z,100132.32
2019-03-01T08:31:00.050Z,100137.42
2019-03-01T08:33:31.683Z,100132.05
2019-03-01T08:36:05.702Z,100127.44
2019-03-01T08:38:36.936Z,100132.99
2019-03-01T08:41:06.563Z,100136.80
2019-03-01T08:43:40.764Z,100132.66
2019-03-01T08:46:12.660Z,100138.70
2019-03-01T08:48:44.386Z,100139.80
2019-03-01T08:51:16.701Z,100146.91
2019-03-01T08:53:50.957Z,100145.92
2019-03-01T08:56:26.224Z,100145.01
2019-03-01T08:58:55.217Z,100149.00
2019-03-01T09:01:27.159Z,100149.41
2019-03-01T09:04:03.354Z,100145.53
2019-03-01T09:06:35.710Z,100148.55
2019-03-01T09:09:08.895Z,100150.56
2019-03-01T09:11:41.673Z,100157.86
2019-03-01T09:14:13.972Z,100154.91
2019-03-01T09:16:45.705Z,100152.46
2019-03-01T09:19:17.350Z,100152.63
2019-03-01T09:21:50.970Z,100158.45
2019-03-01T09:24:25.631Z,100158.30
2019-03-01T09:26:56.231Z,100153.38
2019-03-01T09:29:27.841Z,100159.48
2019-03-01T09:31:59.638Z,100158.17
2019-03-01T09:34:32.078Z,100159.02
2019-03-01T09:37:05.582Z,100162.41
2019-03-01T09:39:37.773Z,100168.12
2019-03-01T09:42:12.384Z,100169.37
2019-03-01T09:44:42.893Z,100172.92
2019-03-01T09:47:14.578Z,100170.23
2019-03-01T09:49:46.377Z,100180.73
2019-03-01T09:52:20.383Z,100178.51
2019-03-01T09:54:53.429Z,100174.41
2019-03-01T09:57:25.252Z,100172.23
2019-03-01T09:59:57.115Z,100173.64
2019-03-01T10:02:28.746Z,100182.52
2019-03-01T10:05:00.621Z,100175.19
2019-03-01T10:07:32.295Z,100174.79
2019-03-01T10:10:04.875Z,100182.22
2019-03-01T10:12:36.638Z,100181.75
2019-03-01T10:15:10.789Z,100184.84
2019-03-01T10:17:42.443Z,100185.30
2019-03-01T10:20:15.115Z,100183.43
2019-03-01T10:22:46.845Z,100186.45
2019-03-01T10:25:19.410Z,100187.25
2019-03-01T10:27:51.140Z,100187.55
2019-03-01T10:30:23.262Z,100192.73
2019-03-01T10:32:55.125Z,100193.36
2019-03-01T10:35:26.827Z,100195.70
2019-03-01T10:37:59.174Z,100198.34
2019-03-01T10:40:31.507Z,100202.16
2019-03-01T10:43:03.185Z,100209.48
2019-03-01T10:45:35.226Z,100214.22
2019-03-01T10:48:07.314Z,100216.84
2019-03-01T10:50:38.984Z,100219.08
2019-03-01T10:53:10.663Z,100217.70
2019-03-01T10:55:43.408Z,100219.31
2019-03-01T10:58:15.078Z,100220.53
2019-03-01T11:00:46.874Z,100219.12
2019-03-01T11:03:18.539Z,100222.93
2019-03-01T11:05:50.418Z,100216.36
2019-03-01T11:08:22.099Z,100225.10
2019-03-01T11:10:54.564Z,100227.27
2019-03-01T11:13:26.258Z,100225.39
2019-03-01T11:15:57.935Z,100229.67
2019-03-01T11:18:29.655Z,100222.47
2019-03-01T11:21:01.305Z,100218.86
2019-03-01T11:23:33.176Z,100222.23
2019-03-01T11:26:04.878Z,100217.20
2019-03-01T11:28:37.396Z,100215.36
2019-03-01T11:31:09.098Z,100221.48
2019-03-01T11:33:40.939Z,100220.23
2019-03-01T11:36:13.195Z,100229.53
2019-03-01T11:38:45.567Z,100227.89
2019-03-01T11:41:17.318Z,100229.38
2019-03-01T11:43:49.637Z,100233.45
2019-03-01T11:46:21.320Z,100239.63
2019-03-01T11:48:53.003Z,100242.36
2019-03-01T11:51:24.718Z,100239.73
2019-03-01T11:53:56.374Z,100236.24
2019-03-01T11:56:28.162Z,100234.86
2019-03-01T11:59:00.539Z,100226.87
2019-03-01T12:01:33.144Z,100227.04
2019-03-01T12:04:06.337Z,100227.99
2019-03-01T12:06:38.053Z,100222.79
2019-03-01T12:09:10.225Z,100233.95
2019-03-01T12:11:41.940Z,100223.02
2019-03-01T12:14:14.276Z,100224.82
2019-03-01T12:16:45.980Z,100224.02
2019-03-01T12:19:18.090Z,100221.47
2019-03-01T12:21:50.057Z,100229.52
2019-03-01T12:24:21.954Z,100227.27
2019-03-01T12:26:53.683Z,100228.27
2019-03-01T12:29:26.045Z,100225.17
2019-03-01T12:31:58.608Z,100230.66
2019-03-01T12:34:30.527Z,100232.97
2019-03-01T12:37:03.037Z,100238.31
2019-03-01T12:39:34.788Z,100232.41
2019-03-01T12:42:06.425Z,100234.58
2019-03-01T12:44:39.102Z,100233.66
2019-03-01T12:47:10.791Z,100233.13
2019-03-01T12:49:42.787Z,100234.27
2019-03-01T12:52:14.532Z,100232.27
2019-03-01T12:54:46.450Z,100226.14
2019-03-01T12:57:18.231Z,100223.33
2019-03-01T12:59:51.358Z,100226.64
2019-03-01T13:02:23.118Z,100226.56
2019-03-01T13:04:55.171Z,100228.34
2019-03-01T13:07:27.558Z,100232.30
2019-03-01T13:10:03.208Z,100231.70
2019-03-01T13:12:32.922Z,100235.44
2019-03-01T13:15:05.084Z,100232.41
2019-03-01T13:17:37.437Z,100229.24
2019-03-01T13:20:13.151Z,100217.59
2019-03-01T13:22:45.431Z,100218.66
2019-03-01T13:25:17.289Z,100221.36
2019-03-01T13:27:52.369Z,100219.45
2019-03-01T13:30:23.072Z,100220.34
2019-03-01T13:32:55.167Z,100225.81
2019-03-01T13:35:27.621Z,100228.58
2019-03-01T13:38:00.107Z,100233.59
2019-03-01T13:40:31.912Z,100229.64
2019-03-01T13:43:04.149Z,100227.11
2019-03-01T13:45:35.902Z,100227.97
2019-03-01T13:48:07.729Z,100234.09
2019-03-01T13:50:41.615Z,100236.63
2019-03-01T13:53:14.113Z,100238.15
2019-03-01T13:55:46.551Z,100239.70
2019-03-01T13:58:20.423Z,100240.30
2019-03-01T14:00:52.327Z,100240.77
2019-03-01T14:03:27.474Z,100236.80
2019-03-01T14:05:57.565Z,100231.64
2019-03-01T14:08:29.331Z,100236.65
2019-03-01T14:11:01.000Z,100241.15
2019-03-01T14:13:33.071Z,100237.92
2019-03-01T14:16:04.728Z,100241.55
2019-03-01T14:18:37.675Z,100240.76
2019-03-01T14:21:09.624Z,100247.88
2019-03-01T14:23:41.463Z,100248.08
2019-03-01T14:26:15.183Z,100243.64
2019-03-01T14:28:47.492Z,100255.88
2019-03-01T14:31:19.332Z,100254.80
2019-03-01T14:33:51.755Z,100262.09
2019-03-01T14:36:23.652Z,100264.11
2019-03-01T14:38:56.230Z,100264.37
2019-03-01T14:41:28.212Z,100274.59
2019-03-01T14:44:00.638Z,100281.70
2019-03-01T14:46:32.341Z,100279.67
2019-03-01T14:49:04.111Z,100282.15
2019-03-01T14:51:35.794Z,100288.89
2019-03-01T14:54:09.907Z,100283.69
2019-03-01T14:56:47.541Z,100291.52
2019-03-01T14:59:35.129Z,100292.96
2019-03-01T15:02:45.849Z,100289.41
2019-03-01T15:05:19.808Z,100291.02
2019-03-01T15:07:51.102Z,100299.87
2019-03-01T15:10:22.844Z,100309.53
2019-03-01T15:12:58.000Z,100312.56
2019-03-01T15:20:32.363Z,100313.84
2019-03-01T15:23:04.435Z,100320.02
2019-03-01T15:25:36.349Z,100327.67
2019-03-01T15:28:08.077Z,100333.84
2019-03-01T15:30:42.578Z,100330.30
2019-03-01T15:33:13.365Z,100331.31
2019-03-01T15:35:45.214Z,100332.75
2019-03-01T15:38:17.720Z,100346.06
2019-03-01T15:40:49.603Z,100349.61
2019-03-01T15:43:21.601Z,100350.59
2019-03-01T15:45:53.320Z,100348.45
2019-03-01T15:48:24.973Z,100358.63
2019-03-01T15:50:59.125Z,100363.00
2019-03-01T15:53:30.603Z,100369.55
2019-03-01T15:56:05.912Z,100364.28
2019-03-01T15:58:35.938Z,100367.41
2019-03-01T16:01:12.124Z,100367.50
2019-03-01T16:03:44.603Z,100370.13
2019-03-01T16:06:19.194Z,100362.14
2019-03-01T16:08:50.149Z,100362.12
2019-03-01T16:11:21.932Z,100365.63
2019-03-01T16:13:53.684Z,100371.72
2019-03-01T16:16:25.750Z,100375.11
2019-03-01T16:18:57.521Z,100373.80
2019-03-01T16:21:29.417Z,100378.59
2019-03-01T16:24:01.184Z,100378.20
2019-03-01T16:26:33.617Z,100384.77
2019-03-01T16:29:07.374Z,100384.01
2019-03-01T16:31:39.792Z,100378.35
2019-03-01T16:34:12.073Z,100376.30
2019-03-01T16:36:51.373Z,100389.66
2019-03-01T16:39:27.935Z,100386.85
2019-03-01T16:41:59.696Z,100390.91
2019-03-01T16:44:31.621Z,100397.30
2019-03-01T16:47:03.554Z,100396.59
2019-03-01T16:49:37.274Z,100394.17
2019-03-01T16:52:09.006Z,100397.86
2019-03-01T16:54:40.771Z,100394.09
2019-03-01T16:57:15.005Z,100396.48
2019-03-01T16:59:46.040Z,100404.50
2019-03-01T17:02:17.830Z,100403.80
2019-03-01T17:04:50.946Z,100400.83
2019-03-01T17:07:25.093Z,100408.77
2019-03-01T17:09:56.450Z,100418.05
2019-03-01T17:12:28.328Z,100416.34
2019-03-01T17:15:01.417Z,100425.08
2019-03-01T17:17:36.834Z,100426.39
2019-03-01T17:20:09.824Z,100439.23
2019-03-01T17:22:41.774Z,100433.27
2019-03-01T17:25:14.775Z,100444.78
2019-03-01T17:27:47.026Z,100450.20
2019-03-01T17:30:19.985Z,100449.16
2019-03-01T17:32:51.777Z,100456.89
2019-03-01T17:35:24.012Z,100461.94
2019-03-01T17:37:55.768Z,100459.50
2019-03-01T17:40:29.276Z,100460.55
2019-03-01T17:43:01.505Z,100468.48
2019-03-01T17:45:33.248Z,100465.45
2019-03-01T17:48:05.037Z,100473.38
2019-03-01T17:50:37.696Z,100483.42
2019-03-01T17:53:10.437Z,100495.33
2019-03-01T17:55:42.387Z,100494.92
2019-03-01T17:58:14.145Z,100503.70
2019-03-01T18:00:47.735Z,100506.33
2019-03-01T18:03:19.845Z,100505.92
2019-03-01T18:05:51.941Z,100514.39
2019-03-01T18:08:23.674Z,100518.05
2019-03-01T18:10:55.437Z,100523.94
2019-03-01T18:13:27.369Z,100532.91
2019-03-01T18:15:59.358Z,100536.45
2019-03-01T18:18:31.064Z,100541.75
2019-03-01T18:21:03.258Z,100539.61
2019-03-01T18:23:38.012Z,100544.38
2019-03-01T18:26:08.526Z,100547.41
2019-03-01T18:28:40.245Z,100551.29
2019-03-01T18:31:12.046Z,100557.38
2019-03-01T18:33:43.959Z,100559.55
2019-03-01T18:36:16.163Z,100566.94
2019-03-01T18:38:48.654Z,100565.63
2019-03-01T18:41:24.014Z,100569.64
2019-03-01T18:43:54.421Z,100561.37
2019-03-01T18:46:26.292Z,100565.77
2019-03-01T18:48:58.156Z,100571.02
2019-03-01T18:51:29.890Z,100574.55
2019-03-01T18:54:04.000Z,100585.98
2019-03-01T18:56:35.903Z,100590.88
2019-03-01T18:59:07.838Z,100588.78
2019-03-01T19:01:42.981Z,100591.00
2019-03-01T19:04:16.717Z,100588.88
2019-03-01T19:06:48.401Z,100591.00
2019-03-01T19:09:21.223Z,100598.02
2019-03-01T19:11:52.968Z,100600.11
2019-03-01T19:14:24.723Z,100598.80
2019-03-01T19:16:56.569Z,100591.41
2019-03-01T19:19:30.636Z,100597.56
2019-03-01T19:22:01.908Z,100600.64
2019-03-01T19:24:42.702Z,100603.72
2019-03-01T19:27:09.297Z,100611.99
2019-03-01T19:29:41.698Z,100615.48
2019-03-01T19:32:13.635Z,100611.99
2019-03-01T19:34:45.464Z,100619.41
2019-03-01T19:37:17.278Z,100625.03
2019-03-01T19:39:50.485Z,100632.53
2019-03-01T19:42:22.424Z,100634.75
2019-03-01T19:44:54.697Z,100635.25
2019-03-01T19:47:27.256Z,100631.39
2019-03-01T19:49:59.379Z,100635.38
2019-03-01T19:52:31.148Z,100633.20
2019-03-01T19:55:03.310Z,100637.09
2019-03-01T19:57:36.352Z,100641.03
2019-03-01T20:00:13.527Z,100642.34
2019-03-01T20:02:45.349Z,100635.38
2019-03-01T20:05:22.955Z,100644.55
2019-03-01T20:07:55.630Z,100634.97
2019-03-01T20:10:28.096Z,100631.94
2019-03-01T20:13:00.016Z,100633.66
2019-03-01T20:15:31.851Z,100637.59
2019-03-01T20:18:06.636Z,100636.73
2019-03-01T20:20:37.218Z,100640.63
2019-03-01T20:23:09.071Z,100642.84
2019-03-01T20:25:41.333Z,100640.21
2019-03-01T20:28:15.196Z,100643.70
2019-03-01T20:30:46.981Z,100638.00
2019-03-01T20:33:18.928Z,100639.27
2019-03-01T20:35:50.681Z,100639.27
2019-03-01T20:38:23.093Z,100642.26
2019-03-01T20:40:55.536Z,100641.48
2019-03-01T20:43:27.410Z,100643.70
2019-03-01T20:45:59.521Z,100652.06
2019-03-01T20:48:32.245Z,100652.92
2019-03-01T20:51:06.141Z,100650.30
2019-03-01T20:53:37.815Z,100653.78
2019-03-01T20:56:13.423Z,100653.38
2019-03-01T20:58:43.563Z,100657.77
2019-03-01T21:01:15.478Z,100663.13
2019-03-01T21:03:47.504Z,100662.77
2019-03-01T21:06:19.832Z,100664.61
2019-03-01T21:08:51.752Z,100666.83
2019-03-01T21:11:25.403Z,100671.74
2019-03-01T21:13:57.403Z,100676.50
2019-03-01T21:16:29.304Z,100673.95
2019-03-01T21:19:01.110Z,100682.28
2019-03-01T21:21:32.837Z,100678.30
2019-03-01T21:24:04.730Z,100686.62
2019-03-01T21:26:36.394Z,100684.45
2019-03-01T21:29:08.982Z,100687.93
2019-03-01T21:31:42.124Z,100695.80
2019-03-01T21:34:14.908Z,100698.02
2019-03-01T21:36:46.761Z,100701.91
2019-03-01T21:39:20.620Z,100704.13
2019-03-01T21:41:52.991Z,100700.59
2019-03-01T21:44:25.146Z,100697.89
2019-03-01T21:46:56.869Z,100692.64
2019-03-01T21:49:28.692Z,100696.09
2019-03-01T21:52:00.530Z,100689.53
2019-03-01T21:54:32.363Z,100689.48
2019-03-01T21:57:04.151Z,100688.22
2019-03-01T21:59:36.322Z,100691.30
2019-03-01T22:02:08.045Z,100693.06
2019-03-01T22:04:39.791Z,100689.62
2019-03-01T22:07:11.509Z,100692.77
2019-03-01T22:09:43.314Z,100692.86
2019-03-01T22:12:15.006Z,100697.31
2019-03-01T22:14:49.081Z,100699.13
2019-03-01T22:17:20.408Z,100696.95
2019-03-01T22:19:52.317Z,100695.19
2019-03-01T22:22:24.060Z,100703.51
2019-03-01T22:24:58.647Z,100715.76
2019-03-01T22:27:29.414Z,100711.45
2019-03-01T22:30:01.259Z,100714.52
2019-03-01T22:32:33.012Z,100715.84
2019-03-01T22:35:08.454Z,100718.45
2019-03-01T22:37:38.382Z,100710.59
2019-03-01T22:40:11.316Z,100717.07
2019-03-01T22:42:45.832Z,100719.70
2019-03-01T22:45:16.937Z,100718.01
2019-03-01T22:47:48.631Z,100718.84
2019-03-01T22:50:20.993Z,100717.52
2019-03-01T22:52:52.837Z,100723.17
2019-03-01T22:55:24.891Z,100721.41
2019-03-01T22:57:57.746Z,100721.41
2019-03-01T23:01:20.944Z,100723.59
2019-03-01T23:03:58.941Z,100723.17
2019-03-01T23:06:30.696Z,100728.09
2019-03-01T23:09:02.916Z,100720.22
2019-03-01T23:11:34.683Z,100710.59
2019-03-01T23:14:06.579Z,100712.69
2019-03-01T23:16:38.373Z,100708.26
2019-03-01T23:19:12.731Z,100709.12
2019-03-01T23:21:43.486Z,100710.47
2019-03-01T23:24:15.148Z,100710.06
2019-03-01T23:26:46.826Z,100706.58
2019-03-01T23:29:19.937Z,100701.75
2019-03-01T23:31:52.002Z,100701.70
2019-03-01T23:34:23.677Z,100704.33
2019-03-01T23:36:55.415Z,100710.47
2019-03-01T23:39:27.209Z,100709.61
2019-03-01T23:41:59.008Z,100710.59
2019-03-01T23:44:30.733Z,100715.02
2019-03-01T23:47:04.391Z,100712.10
2019-03-01T23:49:36.112Z,100714.81
2019-03-01T23:52:07.771Z,100716.64
2019-03-01T23:54:40.602Z,100717.14
2019-03-01T23:57:13.218Z,100717.66
2019-03-01T23:59:44.936Z,100716.84
